createdAt,value
2022-12-31T00:01:53.074Z,99946.89
2022-12-31T00:04:23.558Z,99946.01
2022-12-31T00:06:54.124Z,99942.80
2022-12-31T00:09:25.665Z,99946.18
2022-12-31T00:11:56.124Z,99944.05
2022-12-31T00:14:26.639Z,99944.51
2022-12-31T00:16:57.264Z,99942.54
2022-12-31T00:19:28.072Z,99933.80
2022-12-31T00:21:58.495Z,99927.40
2022-12-31T00:24:31.262Z,99926.96
2022-12-31T00:27:01.762Z,99929.97
2022-12-31T00:29:32.271Z,99930.57
2022-12-31T00:32:02.712Z,99929.95
2022-12-31T00:34:33.189Z,99927.64
2022-12-31T00:37:03.656Z,99924.61
2022-12-31T00:39:37.728Z,99924.96
2022-12-31T00:42:08.336Z,99923.30
2022-12-31T00:44:38.836Z,99924.36
2022-12-31T00:47:09.266Z,99929.86
2022-12-31T00:49:39.672Z,99931.81
2022-12-31T00:52:10.099Z,99941.40
2022-12-31T00:54:40.891Z,99946.05
2022-12-31T00:57:11.388Z,99943.14
2022-12-31T00:59:41.818Z,99947.58
2022-12-31T01:02:12.522Z,99949.13
2022-12-31T01:04:43.251Z,99949.05
2022-12-31T01:07:13.760Z,99950.48
2022-12-31T01:09:44.590Z,99954.42
2022-12-31T01:12:15.031Z,99958.04
2022-12-31T01:14:45.938Z,99959.60
2022-12-31T01:17:17.366Z,99956.91
2022-12-31T01:19:47.784Z,99952.34
2022-12-31T01:22:18.253Z,99948.20
2022-12-31T01:24:48.640Z,99940.89
2022-12-31T01:27:19.094Z,99933.22
2022-12-31T01:29:49.591Z,99941.55
2022-12-31T01:32:20.009Z,99938.32
2022-12-31T01:34:51.307Z,99931.89
2022-12-31T01:37:21.735Z,99929.58
2022-12-31T01:39:52.224Z,99934.17
2022-12-31T01:42:22.961Z,99937.64
2022-12-31T01:44:56.343Z,99942.63
2022-12-31T01:47:37.458Z,99955.11
2022-12-31T01:50:12.457Z,99966.76
2022-12-31T01:52:46.600Z,99970.91
2022-12-31T01:55:20.899Z,99974.10
2022-12-31T01:58:09.241Z,99976.01
2022-12-31T02:00:40.061Z,99979.11
2022-12-31T02:03:11.539Z,99981.02
2022-12-31T02:05:48.928Z,99988.19
2022-12-31T02:08:20.586Z,99992.10
2022-12-31T02:10:51.190Z,99986.95
2022-12-31T02:13:21.943Z,99992.50
2022-12-31T02:16:01.428Z,99998.22
2022-12-31T02:18:39.593Z,99997.63
2022-12-31T02:21:38.091Z,99994.27
2022-12-31T02:24:41.463Z,99992.27
2022-12-31T02:27:19.488Z,99988.64
2022-12-31T02:30:06.398Z,99987.54
2022-12-31T02:32:48.759Z,99987.27
2022-12-31T02:35:24.363Z,99984.97
2022-12-31T02:37:59.923Z,99982.83
2022-12-31T02:40:31.136Z,99980.35
2022-12-31T02:43:01.529Z,99984.50
2022-12-31T02:49:53.991Z,99999.21
2022-12-31T02:52:39.231Z,100001.98
2022-12-31T02:55:17.860Z,100001.06
2022-12-31T02:57:56.679Z,99997.82
2022-12-31T03:01:00.503Z,99999.02
2022-12-31T03:03:32.644Z,99996.77
2022-12-31T03:06:04.466Z,99990.52
2022-12-31T03:08:55.319Z,99990.88
2022-12-31T03:11:39.822Z,99995.50
2022-12-31T03:14:10.300Z,99997.52
2022-12-31T03:16:40.800Z,100000.27
2022-12-31T03:19:31.199Z,100001.47
2022-12-31T03:22:19.778Z,100010.69
2022-12-31T03:25:07.715Z,100018.19
2022-12-31T03:27:38.583Z,100010.96
2022-12-31T03:30:11.831Z,100012.27
2022-12-31T03:32:43.250Z,100013.92
2022-12-31T03:35:15.271Z,100020.54
2022-12-31T03:37:44.354Z,100034.16
2022-12-31T03:40:16.470Z,100037.10
2022-12-31T03:42:45.592Z,100038.59
2022-12-31T03:45:16.698Z,100038.82
2022-12-31T03:47:47.396Z,100047.30
2022-12-31T03:50:19.296Z,100050.50
2022-12-31T03:52:50.090Z,100053.13
2022-12-31T03:55:20.798Z,100044.83
2022-12-31T03:57:51.355Z,100043.30
2022-12-31T04:00:23.519Z,100042.95
2022-12-31T04:02:54.553Z,100042.44
2022-12-31T04:05:25.613Z,100036.31
2022-12-31T04:07:56.661Z,100028.14
2022-12-31T04:10:27.118Z,100025.40
2022-12-31T04:13:00.402Z,100023.80
2022-12-31T04:15:30.918Z,100016.40
2022-12-31T04:18:01.467Z,100020.63
2022-12-31T04:20:31.881Z,100022.46
2022-12-31T04:23:02.335Z,100026.18
2022-12-31T04:25:32.977Z,100022.43
2022-12-31T04:28:03.472Z,100013.11
2022-12-31T04:30:33.920Z,100003.75
2022-12-31T04:33:04.372Z,100000.96
2022-12-31T04:35:34.882Z,100002.23
2022-12-31T04:38:05.322Z,99995.61
2022-12-31T04:40:55.834Z,100003.36
2022-12-31T04:43:27.323Z,100020.34
2022-12-31T04:45:57.891Z,100027.27
2022-12-31T04:48:28.508Z,100033.70
2022-12-31T04:50:58.945Z,100034.73
2022-12-31T04:53:29.739Z,100032.36
2022-12-31T04:56:00.376Z,100035.14
2022-12-31T04:58:30.838Z,100026.58
2022-12-31T05:01:01.626Z,100019.20
2022-12-31T05:03:32.582Z,100026.98
2022-12-31T05:06:07.863Z,100031.69
2022-12-31T05:08:38.345Z,100025.13
2022-12-31T05:11:08.980Z,100024.08
2022-12-31T05:13:40.742Z,100024.17
2022-12-31T05:16:12.064Z,100021.55
2022-12-31T05:18:42.611Z,100018.36
2022-12-31T05:21:19.289Z,100008.29
2022-12-31T05:23:50.054Z,100012.71
2022-12-31T05:26:20.661Z,100016.61
2022-12-31T05:28:51.063Z,100024.61
2022-12-31T05:31:21.476Z,100018.68
2022-12-31T05:33:51.904Z,100025.87
2022-12-31T05:36:22.327Z,100018.86
2022-12-31T05:38:52.796Z,100025.64
2022-12-31T05:41:23.252Z,100029.33
2022-12-31T05:43:54.210Z,100030.23
2022-12-31T05:46:24.694Z,100029.59
2022-12-31T05:48:55.237Z,100019.59
2022-12-31T05:51:25.631Z,100024.23
2022-12-31T05:53:56.116Z,100019.11
2022-12-31T05:56:26.708Z,100025.22
2022-12-31T05:58:57.474Z,100032.20
2022-12-31T06:01:27.972Z,100033.39
2022-12-31T06:03:58.627Z,100034.78
2022-12-31T06:06:29.195Z,100028.64
2022-12-31T06:08:59.617Z,100026.45
2022-12-31T06:11:30.073Z,100029.88
2022-12-31T06:14:00.494Z,100032.05
2022-12-31T06:16:31.032Z,100031.31
2022-12-31T06:19:02.399Z,100033.44
2022-12-31T06:21:33.239Z,100030.30
2022-12-31T06:24:03.656Z,100033.83
2022-12-31T06:26:34.198Z,100032.10
2022-12-31T06:29:05.031Z,100038.31
2022-12-31T06:31:35.745Z,100049.63
2022-12-31T06:34:06.303Z,100056.39
2022-12-31T06:36:36.726Z,100052.04
2022-12-31T06:39:07.965Z,100055.63
2022-12-31T06:41:38.687Z,100055.12
2022-12-31T06:44:09.468Z,100048.27
2022-12-31T06:46:39.920Z,100036.45
2022-12-31T06:49:10.483Z,100042.42
2022-12-31T06:51:40.981Z,100043.29
2022-12-31T06:54:11.384Z,100040.06
2022-12-31T06:56:46.473Z,100032.50
2022-12-31T06:59:26.886Z,100030.80
2022-12-31T07:02:15.745Z,100032.30
2022-12-31T07:05:08.661Z,100043.19
2022-12-31T07:07:50.220Z,100053.19
2022-12-31T07:10:30.272Z,100058.20
2022-12-31T07:13:20.154Z,100063.09
2022-12-31T07:16:04.076Z,100061.84
2022-12-31T07:18:42.430Z,100059.09
2022-12-31T07:21:16.186Z,100056.79
2022-12-31T07:23:47.790Z,100067.20
2022-12-31T07:26:33.703Z,100073.61
2022-12-31T07:29:14.569Z,100064.87
2022-12-31T07:31:58.933Z,100062.71
2022-12-31T07:34:38.046Z,100063.91
2022-12-31T07:37:13.731Z,100059.80
2022-12-31T07:39:54.595Z,100067.61
2022-12-31T07:42:33.332Z,100072.48
2022-12-31T07:45:11.028Z,100074.27
2022-12-31T07:47:42.595Z,100079.97
2022-12-31T07:50:18.529Z,100070.77
2022-12-31T07:52:50.301Z,100062.08
2022-12-31T07:55:20.755Z,100073.22
2022-12-31T07:58:01.770Z,100063.98
2022-12-31T08:00:32.718Z,100072.17
2022-12-31T08:03:16.144Z,100080.60
2022-12-31T08:05:53.419Z,100084.35
2022-12-31T08:08:36.924Z,100087.69
2022-12-31T08:11:18.032Z,100082.14
2022-12-31T08:13:50.309Z,100092.31
2022-12-31T08:16:21.829Z,100091.68
2022-12-31T08:18:53.581Z,100096.52
2022-12-31T08:21:37.853Z,100086.00
2022-12-31T08:24:18.861Z,100085.34
2022-12-31T08:27:01.660Z,100087.23
2022-12-31T08:29:41.285Z,100088.55
2022-12-31T08:32:19.821Z,100085.02
2022-12-31T08:34:59.698Z,100092.84
2022-12-31T08:37:40.036Z,100097.27
2022-12-31T08:40:25.220Z,100090.11
2022-12-31T08:43:13.969Z,100097.13
2022-12-31T08:45:48.922Z,100094.15
2022-12-31T08:48:29.265Z,100093.55
2022-12-31T08:51:02.580Z,100094.96
2022-12-31T08:53:34.952Z,100086.30
2022-12-31T08:56:14.592Z,100089.10
2022-12-31T08:58:55.828Z,100086.08
2022-12-31T09:01:30.207Z,100086.15
2022-12-31T09:04:20.296Z,100084.56
2022-12-31T09:06:57.030Z,100072.40
2022-12-31T09:09:38.412Z,100073.06
2022-12-31T09:12:18.059Z,100065.50
2022-12-31T09:14:58.073Z,100073.09
2022-12-31T09:17:44.803Z,100078.45
2022-12-31T09:20:24.586Z,100077.79
2022-12-31T09:22:56.820Z,100079.45
2022-12-31T09:25:29.788Z,100080.81
2022-12-31T09:28:17.561Z,100077.70
2022-12-31T09:30:58.234Z,100088.31
2022-12-31T09:33:39.823Z,100082.16
2022-12-31T09:36:17.554Z,100080.24
2022-12-31T09:38:53.710Z,100079.36
2022-12-31T09:41:50.443Z,100080.17
2022-12-31T09:44:55.124Z,100076.18
2022-12-31T09:48:08.481Z,100078.62
2022-12-31T09:50:51.219Z,100077.80
2022-12-31T09:53:39.671Z,100086.27
2022-12-31T09:56:18.567Z,100071.94
2022-12-31T09:58:58.267Z,100069.86
2022-12-31T10:01:41.123Z,100072.20
2022-12-31T10:04:48.221Z,100078.48
2022-12-31T10:07:38.959Z,100075.82
2022-12-31T10:10:19.526Z,100085.67
2022-12-31T10:13:16.153Z,100079.04
2022-12-31T10:16:30.088Z,100069.11
2022-12-31T10:19:30.714Z,100069.00
2022-12-31T10:22:16.596Z,100074.21
2022-12-31T10:25:01.992Z,100068.06
2022-12-31T10:27:53.117Z,100069.84
2022-12-31T10:30:25.456Z,100063.56
2022-12-31T10:33:16.691Z,100061.04
2022-12-31T10:35:55.620Z,100064.35
2022-12-31T10:38:39.705Z,100063.05
2022-12-31T10:41:44.712Z,100060.38
2022-12-31T10:44:41.135Z,100054.58
2022-12-31T10:47:37.885Z,100054.30
2022-12-31T10:50:36.692Z,100046.24
2022-12-31T10:53:39.062Z,100050.93
2022-12-31T10:56:41.739Z,100041.50
2022-12-31T10:59:36.815Z,100040.34
2022-12-31T11:02:29.910Z,100043.62
2022-12-31T11:05:48.371Z,100042.11
2022-12-31T11:08:46.127Z,100049.73
2022-12-31T11:11:29.544Z,100047.19
2022-12-31T11:14:31.106Z,100049.27
2022-12-31T11:17:17.416Z,100039.50
2022-12-31T11:20:03.863Z,100041.42
2022-12-31T11:22:52.094Z,100042.65
2022-12-31T11:25:33.902Z,100030.44
2022-12-31T11:28:26.356Z,100035.61
2022-12-31T11:31:20.650Z,100024.94
2022-12-31T11:34:04.666Z,100026.13
2022-12-31T11:36:45.503Z,100026.65
2022-12-31T11:39:31.436Z,100018.91
2022-12-31T11:42:13.698Z,100019.66
2022-12-31T11:44:51.431Z,100014.52
2022-12-31T11:48:27.982Z,100016.11
2022-12-31T11:50:50.015Z,100012.52
2022-12-31T11:53:35.799Z,100008.61
2022-12-31T11:56:18.121Z,100014.02
2022-12-31T11:58:52.141Z,100001.99
2022-12-31T12:01:28.161Z,100009.08
2022-12-31T12:03:59.155Z,100009.78
2022-12-31T12:06:31.155Z,100008.42
2022-12-31T12:09:07.430Z,100000.35
2022-12-31T12:11:40.634Z,100008.09
2022-12-31T12:14:23.697Z,100007.59
2022-12-31T12:17:04.307Z,100006.05
2022-12-31T12:19:42.470Z,100011.74
2022-12-31T12:22:15.349Z,100010.35
2022-12-31T12:24:56.104Z,100012.77
2022-12-31T12:27:30.918Z,100024.33
2022-12-31T12:30:11.719Z,100027.93
2022-12-31T12:32:51.933Z,100025.69
2022-12-31T12:35:28.130Z,100026.73
2022-12-31T12:38:07.268Z,100030.17
2022-12-31T12:40:37.773Z,100037.42
2022-12-31T12:43:21.939Z,100041.55
2022-12-31T12:45:53.152Z,100037.58
2022-12-31T12:52:59.557Z,100041.38
2022-12-31T12:55:40.360Z,100044.65
2022-12-31T12:58:19.520Z,100034.31
2022-12-31T13:00:59.664Z,100025.86
2022-12-31T13:04:33.418Z,100032.08
2022-12-31T13:07:12.970Z,100031.19
2022-12-31T13:09:57.926Z,100037.39
2022-12-31T13:13:04.831Z,100029.48
2022-12-31T13:15:34.762Z,100034.80
2022-12-31T13:18:18.587Z,100039.79
2022-12-31T13:20:56.977Z,100039.25
2022-12-31T13:23:39.697Z,100035.45
2022-12-31T13:26:16.168Z,100035.77
2022-12-31T13:28:50.068Z,100035.61
2022-12-31T13:31:26.644Z,100037.99
2022-12-31T13:34:00.477Z,100045.73
2022-12-31T13:36:34.087Z,100052.61
2022-12-31T13:39:12.767Z,100056.73
2022-12-31T13:41:47.831Z,100057.79
2022-12-31T13:44:28.187Z,100056.06
2022-12-31T13:47:05.028Z,100056.92
2022-12-31T13:49:43.687Z,100061.23
2022-12-31T13:52:24.566Z,100064.33
2022-12-31T13:55:02.621Z,100070.86
2022-12-31T13:57:43.241Z,100067.08
2022-12-31T14:00:24.187Z,100066.03
2022-12-31T14:03:05.949Z,100058.95
2022-12-31T14:05:43.905Z,100063.26
2022-12-31T14:08:15.343Z,100063.77
2022-12-31T14:10:55.726Z,100066.67
2022-12-31T14:13:43.129Z,100066.98
2022-12-31T14:16:25.160Z,100066.83
2022-12-31T14:19:06.229Z,100075.56
2022-12-31T14:21:45.891Z,100076.21
2022-12-31T14:24:33.479Z,100077.57
2022-12-31T14:27:09.981Z,100079.15
2022-12-31T14:29:45.865Z,100072.14
2022-12-31T14:32:45.332Z,100076.60
2022-12-31T14:35:36.137Z,100076.77
2022-12-31T14:38:19.848Z,100083.14
2022-12-31T14:41:05.949Z,100083.80
2022-12-31T14:43:45.908Z,100083.95
2022-12-31T14:46:27.381Z,100082.73
2022-12-31T14:49:07.652Z,100079.29
2022-12-31T14:51:39.990Z,100081.68
2022-12-31T14:57:27.383Z,100070.80
2022-12-31T15:00:00.016Z,100081.98
2022-12-31T15:02:33.426Z,100084.37
2022-12-31T15:05:19.355Z,100081.81
2022-12-31T15:08:04.614Z,100074.59
2022-12-31T15:10:49.264Z,100080.59
2022-12-31T15:13:40.780Z,100078.20
2022-12-31T15:16:16.389Z,100087.83
2022-12-31T15:19:03.050Z,100082.16
2022-12-31T15:21:43.211Z,100082.66
2022-12-31T15:24:21.436Z,100084.73
2022-12-31T15:26:52.059Z,100084.56
2022-12-31T15:29:28.841Z,100080.61
2022-12-31T15:32:02.452Z,100075.25
2022-12-31T15:34:36.708Z,100082.13
2022-12-31T15:37:27.643Z,100097.40
2022-12-31T15:40:08.635Z,100101.70
2022-12-31T15:42:49.697Z,100109.96
2022-12-31T15:45:27.235Z,100108.23
2022-12-31T15:48:02.971Z,100106.17
2022-12-31T15:50:37.511Z,100114.27
2022-12-31T15:53:09.551Z,100109.83
2022-12-31T15:55:45.769Z,100118.61
2022-12-31T15:58:20.642Z,100119.66
2022-12-31T16:01:02.562Z,100123.77
2022-12-31T16:03:34.609Z,100129.63
2022-12-31T16:06:11.784Z,100129.29
2022-12-31T16:08:45.539Z,100137.02
2022-12-31T16:11:16.641Z,100139.77
2022-12-31T16:13:50.335Z,100132.55
2022-12-31T16:16:25.153Z,100140.12
2022-12-31T16:18:56.827Z,100147.86
2022-12-31T16:21:33.958Z,100149.06
2022-12-31T16:24:06.160Z,100160.10
2022-12-31T16:26:46.030Z,100156.50
2022-12-31T16:29:19.738Z,100153.93
2022-12-31T16:31:53.233Z,100156.01
2022-12-31T16:34:25.034Z,100157.56
2022-12-31T16:37:00.795Z,100160.83
2022-12-31T16:39:33.835Z,100163.58
2022-12-31T16:42:22.284Z,100167.34
2022-12-31T16:44:54.125Z,100166.63
2022-12-31T16:47:26.185Z,100175.22
2022-12-31T16:50:04.177Z,100184.15
2022-12-31T16:52:38.021Z,100188.45
2022-12-31T16:55:16.736Z,100187.25
2022-12-31T16:57:54.147Z,100187.75
2022-12-31T17:00:26.952Z,100185.52
2022-12-31T17:03:15.611Z,100183.83
2022-12-31T17:06:03.213Z,100181.27
2022-12-31T17:08:43.275Z,100178.88
2022-12-31T17:11:39.494Z,100186.97
2022-12-31T17:14:16.931Z,100184.05
2022-12-31T17:17:02.585Z,100190.77
2022-12-31T17:19:43.463Z,100196.45
2022-12-31T17:22:24.132Z,100196.27
2022-12-31T17:25:02.822Z,100197.13
2022-12-31T17:27:34.514Z,100200.40
2022-12-31T17:30:37.393Z,100197.98
2022-12-31T17:33:29.881Z,100196.04
2022-12-31T17:36:16.317Z,100197.39
2022-12-31T17:38:46.855Z,100197.56
2022-12-31T17:41:26.611Z,100200.15
2022-12-31T17:44:00.408Z,100200.98
2022-12-31T17:46:41.063Z,100205.10
2022-12-31T17:49:15.157Z,100209.77
2022-12-31T17:51:47.709Z,100209.80
2022-12-31T17:54:19.733Z,100210.16
2022-12-31T17:56:51.177Z,100209.66
2022-12-31T17:59:25.540Z,100211.91
2022-12-31T18:01:56.391Z,100213.13
2022-12-31T18:04:27.556Z,100221.21
2022-12-31T18:06:57.986Z,100220.53
2022-12-31T18:09:28.423Z,100221.74
2022-12-31T18:12:01.613Z,100226.73
2022-12-31T18:14:32.561Z,100225.00
2022-12-31T18:17:03.299Z,100227.92
2022-12-31T18:22:24.384Z,100227.38
2022-12-31T18:24:59.573Z,100231.17
2022-12-31T18:27:30.835Z,100232.54
2022-12-31T18:30:04.751Z,100232.54
2022-12-31T18:32:38.431Z,100233.60
2022-12-31T18:35:40.362Z,100235.86
2022-12-31T18:38:11.673Z,100218.51
2022-12-31T18:40:46.585Z,100227.17
2022-12-31T18:43:19.814Z,100225.79
2022-12-31T18:45:52.175Z,100224.08
2022-12-31T18:48:22.704Z,100221.66
2022-12-31T18:50:53.706Z,100225.11
2022-12-31T18:53:25.466Z,100221.66
2022-12-31T18:55:57.521Z,100219.95
2022-12-31T18:58:28.016Z,100217.88
2022-12-31T19:00:58.800Z,100217.02
2022-12-31T19:03:29.422Z,100214.27
2022-12-31T19:05:59.904Z,100212.89
2022-12-31T19:08:31.941Z,100214.23
2022-12-31T19:11:04.033Z,100217.98
2022-12-31T19:13:34.620Z,100220.90
2022-12-31T19:16:05.433Z,100223.54
2022-12-31T19:18:36.409Z,100216.38
2022-12-31T19:21:08.194Z,100218.66
2022-12-31T19:23:38.691Z,100220.77
2022-12-31T19:26:13.061Z,100219.78
2022-12-31T19:28:44.159Z,100213.27
2022-12-31T19:31:15.249Z,100218.83
2022-12-31T19:33:45.824Z,100216.23
2022-12-31T19:36:19.142Z,100215.39
2022-12-31T19:38:49.623Z,100216.10
2022-12-31T19:41:27.860Z,100219.40
2022-12-31T19:43:58.609Z,100218.73
2022-12-31T19:46:29.087Z,100223.88
2022-12-31T19:48:59.649Z,100221.47
2022-12-31T19:51:30.180Z,100219.74
2022-12-31T19:54:00.821Z,100228.67
2022-12-31T19:56:31.323Z,100227.44
2022-12-31T19:59:06.682Z,100229.34
2022-12-31T20:01:37.338Z,100223.82
2022-12-31T20:04:08.606Z,100223.45
2022-12-31T20:06:39.082Z,100230.67
2022-12-31T20:09:09.624Z,100229.10
2022-12-31T20:11:40.251Z,100229.27
2022-12-31T20:14:12.147Z,100231.50
2022-12-31T20:16:41.080Z,100230.95
2022-12-31T20:19:11.917Z,100230.75
2022-12-31T20:21:44.629Z,100229.55
2022-12-31T20:24:15.150Z,100234.52
2022-12-31T20:26:45.688Z,100231.91
2022-12-31T20:29:16.168Z,100240.67
2022-12-31T20:31:46.747Z,100233.95
2022-12-31T20:34:17.377Z,100240.15
2022-12-31T20:36:47.941Z,100238.06
2022-12-31T20:39:18.473Z,100244.59
2022-12-31T20:41:48.999Z,100248.54
2022-12-31T20:44:19.457Z,100251.16
2022-12-31T20:46:49.989Z,100251.85
2022-12-31T20:49:37.514Z,100249.30
2022-12-31T20:52:11.983Z,100238.11
2022-12-31T20:54:42.518Z,100233.13
2022-12-31T20:57:13.006Z,100229.52
2022-12-31T20:59:43.740Z,100223.68
2022-12-31T21:02:21.415Z,100229.02
2022-12-31T21:04:52.777Z,100228.14
2022-12-31T21:07:23.446Z,100222.12
2022-12-31T21:09:53.932Z,100231.23
2022-12-31T21:12:42.262Z,100232.60
2022-12-31T21:15:14.187Z,100235.86
2022-12-31T21:17:44.721Z,100235.16
2022-12-31T21:20:15.375Z,100230.34
2022-12-31T21:22:45.848Z,100225.70
2022-12-31T21:25:16.733Z,100224.14
2022-12-31T21:27:47.281Z,100218.95
2022-12-31T21:30:19.555Z,100211.19
2022-12-31T21:32:50.597Z,100213.06
2022-12-31T21:38:11.565Z,100211.32
2022-12-31T21:40:42.024Z,100214.91
2022-12-31T21:43:13.156Z,100215.05
2022-12-31T21:45:43.649Z,100213.66
2022-12-31T21:48:22.078Z,100215.90
2022-12-31T21:50:54.529Z,100221.39
2022-12-31T21:53:32.180Z,100221.73
2022-12-31T21:56:11.570Z,100220.70
2022-12-31T21:58:44.286Z,100228.09
2022-12-31T22:01:39.047Z,100229.81
2022-12-31T22:04:35.173Z,100237.39
2022-12-31T22:07:02.100Z,100236.87
2022-12-31T22:09:32.564Z,100238.95
2022-12-31T22:12:03.031Z,100245.23
2022-12-31T22:14:33.508Z,100241.01
2022-12-31T22:17:03.977Z,100240.36
2022-12-31T22:19:48.689Z,100232.65
2022-12-31T22:22:25.424Z,100228.73
2022-12-31T22:24:55.895Z,100228.05
2022-12-31T22:27:28.157Z,100225.11
2022-12-31T22:30:00.200Z,100229.75
2022-12-31T22:32:30.689Z,100227.15
2022-12-31T22:35:01.185Z,100232.64
2022-12-31T22:37:56.800Z,100232.30
2022-12-31T22:40:22.092Z,100233.98
2022-12-31T22:42:52.585Z,100234.46
2022-12-31T22:45:23.011Z,100231.66
2022-12-31T22:47:53.551Z,100230.59
2022-12-31T22:50:23.995Z,100229.30
2022-12-31T22:52:54.463Z,100232.52
2022-12-31T22:55:24.885Z,100231.95
2022-12-31T22:57:55.421Z,100226.39
2022-12-31T23:00:38.485Z,100223.11
2022-12-31T23:03:08.961Z,100225.63
2022-12-31T23:05:39.514Z,100227.66
2022-12-31T23:08:22.156Z,100232.64
2022-12-31T23:11:01.433Z,100233.11
2022-12-31T23:13:54.321Z,100230.50
2022-12-31T23:16:43.212Z,100236.49
2022-12-31T23:19:32.070Z,100238.34
2022-12-31T23:22:20.340Z,100230.39
2022-12-31T23:24:50.825Z,100232.79
2022-12-31T23:27:21.265Z,100226.05
2022-12-31T23:29:51.786Z,100222.75
2022-12-31T23:32:22.243Z,100218.25
2022-12-31T23:34:53.575Z,100212.90
2022-12-31T23:37:24.031Z,100220.27
2022-12-31T23:39:54.535Z,100214.38
2022-12-31T23:42:24.983Z,100212.98
2022-12-31T23:44:55.417Z,100211.25
2022-12-31T23:47:25.846Z,100214.84
2022-12-31T23:49:56.316Z,100213.31
2022-12-31T23:52:26.744Z,100216.74
2022-12-31T23:54:57.182Z,100222.09
2022-12-31T23:57:27.623Z,100229.83
2022-12-31T23:59:58.031Z,100238.95
